Terminal Aerodrome Forecast
Issued by NWS

Home | Current Version | Previous Version | Text Only | Print | Product List | Glossary On
Versions: 1 2 3 4 5 6 7 8 9 10 11 12 13 14 15 16 17
000
FTUS42 KTBW 250500
TAFLAL
TAF
KLAL 250533Z 2506/2606 30010KT P6SM BKN050
     FM250900 30006KT P6SM SCT008 BKN050
     FM251700 35008KT P6SM BKN050
     FM252200 02005KT P6SM FEW100 SCT250
      AMD NOT SKED TIL 251200=

USA.gov is the U.S. government's official web portal to all federal, state and local government web resources and services.